Identifiez vous afin de poster une observation
 • Tableaux GEFS v12   

Tableaux GEFS v12 de Températures à 2 mètres (°C)

Run GEFS du 03/02/2023 06Z - Choix du run : 00 - 06 - 12 - 18 Sauver tableau : Conserver cette image

Paramètres : [ Temp. 850hPa ] - [ Temp. 500hPa ] - [ Pression ] - [ Précip. ] - [ Cumuls ] - [ Temp. 2m ] - [ Z500 ] - [ CAPE ] -
[ Vent+Direction 10m ] - [ Vent 10m ] - [ Vent Rafales 10m ] - [ Vent+Direction 850hPa ] - [ Vent 850hPa ] - [ Iso 0 ] -
Tri des valeurs : [ Par scénario ] - [ Ascendant ] - [ Descendant ]

Localisation : 42.7N 23.3E

DateEch.
2023-02-03 06Z0-5-4.9-4.8-4.7-4.7-4.6-4.6-4.6-4.6-4.6-4.6-4.6-4.6-4.5-4.5-4.5-4.5-4.5-4.5-4.4-4.4-4.4-4.4-4.4-4.4-4.4-4.4-4.4-4.3-4.3-4-3.2
2023-02-03 09Z3-1.3-0.100000.10.10.10.10.10.10.10.20.20.20.20.20.20.30.30.30.30.30.30.30.30.30.30.30.30.5
2023-02-03 12Z6-0.30.60.60.60.70.80.80.80.80.80.90.90.90.90.90.911111111.11.11.11.11.11.21.21.21.3
2023-02-03 15Z9-2.1-0.9-0.9-0.9-0.9-0.9-0.9-0.8-0.8-0.8-0.8-0.8-0.8-0.7-0.7-0.7-0.7-0.7-0.7-0.6-0.6-0.6-0.6-0.5-0.5-0.5-0.5-0.4-0.4-0.4-0.3-0.3
2023-02-03 18Z12-4.9-3.8-3.7-3.7-3.7-3.7-3.7-3.6-3.6-3.6-3.6-3.6-3.6-3.6-3.6-3.6-3.6-3.5-3.5-3.5-3.5-3.5-3.4-3.4-3.4-3.3-3.3-3.3-3.2-3.2-3-2.9
2023-02-03 21Z15-4.3-4-3.8-3.7-3.6-3.6-3.6-3.5-3.5-3.5-3.3-3.3-3.2-3.2-3-3-3-2.9-2.9-2.9-2.8-2.8-2.8-2.7-2.7-2.7-2.6-2.6-2.4-2.2-2.1-2.1
2023-02-04 00Z18-3.1-2.8-2.4-2.3-2.2-2.2-2.1-2.1-2-2-2-2-2-2-1.9-1.9-1.9-1.8-1.8-1.7-1.7-1.7-1.7-1.6-1.6-1.6-1.6-1.4-1.4-1.3-1.3-1.3
2023-02-04 03Z21-3.2-2.5-2.4-2.3-2.2-2.1-2.1-2-2-1.9-1.9-1.9-1.9-1.9-1.9-1.9-1.8-1.8-1.7-1.6-1.6-1.6-1.6-1.6-1.5-1.4-1.4-1.4-1.3-1.2-1.1-0.9
2023-02-04 06Z24-3.6-2.6-2.5-2.5-2.4-2.4-2.3-2.2-2.2-2.1-2.1-2-2-2-1.9-1.9-1.9-1.9-1.8-1.8-1.8-1.7-1.7-1.7-1.7-1.7-1.6-1.6-1.4-1.4-1.4-1.4
2023-02-04 09Z27-1.300.30.40.40.40.50.70.91111.11.11.11.31.31.31.31.41.41.41.51.51.51.51.51.61.61.71.81.9
2023-02-04 12Z300.61.31.61.61.91.922.12.22.22.32.32.42.42.52.52.62.62.62.62.72.72.82.82.82.82.82.933.13.23.3
2023-02-04 15Z33-3-2.9-2.6-1.7-1.7-1.6-1.4-1.1-1-0.7-0.5-0.5-0.4-0.4-0.3-0.3-0.2-0.10.20.20.30.30.40.50.60.60.60.70.90.90.91.2
2023-02-04 18Z36-5.5-4.4-4.4-4.4-4.3-4.3-4.1-4.1-4-4-4-4-4-4-3.8-3.6-3.5-3.5-3.3-3.1-3.1-3-3-2.9-2.9-2.8-2.6-2.4-2.4-2.2-1.7-1.5
2023-02-04 21Z39-5.6-5.2-5-4.7-4.5-4.3-4.2-4-4-4-3.9-3.8-3.8-3.8-3.8-3.7-3.6-3.5-3.5-3.4-3.3-3.3-3.3-3.2-3.1-2.8-2.8-2.7-2.6-2.5-2.5-2.2
2023-02-05 00Z42-6.3-6.3-6.2-6-6-5.9-5.8-5.6-5.6-5.4-5.4-5.1-5-5-4.9-4.8-4.8-4.8-4.6-4.5-4.4-4.4-4.3-4.2-4.2-4-3.9-3.8-3.7-3.6-3.1-2.9
2023-02-05 03Z45-7.8-7.5-7.2-7.2-7.1-7.1-7-6.9-6.8-6.8-6.7-6.7-6.6-6.5-6.4-6.4-6.3-6.3-6.3-6.3-6.3-6.2-5.9-5.9-5.8-5.8-5.7-5.6-5.5-5-4.9-3
2023-02-05 06Z48-8.5-7.7-7.6-7.6-7.6-7.5-7.5-7.5-7.4-7.4-7.4-7.3-7.3-7.3-7.3-7.3-7.3-7.2-7.2-7.2-7.2-7.1-7.1-7-7-7-6.7-6.5-6.4-6.3-6.1-4.6
2023-02-05 09Z51-6.6-6.5-6.4-6.1-6-6-5.9-5.9-5.9-5.9-5.8-5.8-5.8-5.8-5.7-5.7-5.7-5.7-5.7-5.6-5.6-5.6-5.5-5.5-5.4-5.4-5.3-5.2-5-5-4.2-4
2023-02-05 12Z54-5.6-5.3-5.2-5.1-5.1-5-5-5-4.9-4.8-4.8-4.7-4.7-4.7-4.6-4.6-4.6-4.6-4.5-4.4-4.4-4.3-4.2-4.1-4-4-4-3.5-3.3-3.3-3.3-3.2
2023-02-05 15Z57-6.6-6.4-6.3-6.2-6.1-6.1-6-5.9-5.9-5.9-5.8-5.8-5.8-5.8-5.6-5.6-5.5-5.5-5.4-5.3-5.3-5.2-5.1-5.1-5-5-4.9-4.9-4.7-4.7-4.4-4
2023-02-05 18Z60-8.9-8.5-8.1-8-7.9-7.9-7.8-7.8-7.8-7.7-7.7-7.7-7.6-7.6-7.5-7.5-7.3-7.2-7.1-7.1-7-6.9-6.9-6.7-6.6-6.6-6.6-6.4-6.4-6.1-6-5.1
2023-02-05 21Z63-10.6-9.1-9-8.9-8.8-8.8-8.7-8.7-8.6-8.3-8.3-8.2-8.2-8.2-8.2-8.1-8.1-8-8-7.9-7.9-7.9-7.8-7.8-7.8-7.5-7.5-7.5-7.3-7.3-7-6.6
2023-02-06 00Z66-11.5-10.5-10.1-9.6-9.6-9.3-9.1-9-8.9-8.8-8.8-8.7-8.6-8.6-8.6-8.6-8.6-8.5-8.5-8.4-8.3-8.3-8.3-8.2-8.2-8.1-8.1-8-7.9-7.8-7.7-7.4
2023-02-06 03Z69-11.7-10.4-10.3-10.2-10.2-10-9.8-9.8-9.8-9.5-9.4-9.4-9.3-9.3-9.3-9.2-9.2-9.1-9.1-9.1-9.1-9.1-9-9-8.9-8.8-8.8-8.7-8.5-8.2-8.2-8.2
2023-02-06 06Z72-12.1-11.5-11.3-11.1-11-10.8-10.8-10.7-10.7-10.6-10.5-10.4-10.1-10.1-10-9.9-9.8-9.8-9.8-9.6-9.6-9.5-9.5-9.4-9.3-9.2-9.1-9.1-8.8-8.7-8.7-8.5
2023-02-06 09Z75-8.2-7.8-7.4-7.4-7.4-7.3-7.3-7.2-7.2-7.1-7.1-7-7-7-6.9-6.9-6.9-6.9-6.8-6.8-6.7-6.7-6.7-6.7-6.6-6.6-6.6-6.6-6.5-6.5-6.4-6.4
2023-02-06 12Z78-7-6.4-6-5.8-5.6-5.6-5.6-5.5-5.4-5.4-5.4-5.4-5.4-5.4-5.4-5.3-5.3-5.2-5.2-5.2-5.2-5.2-5-5-5-5-4.9-4.9-4.8-4.7-4.4-4.3
2023-02-06 15Z81-8.5-7.3-7.3-7.2-6.9-6.6-6.6-6.6-6.5-6.5-6.5-6.4-6.4-6.3-6.2-6.1-6.1-6.1-6-6-6-6-6-5.9-5.9-5.9-5.9-5.8-5.6-5.6-5.5-5.1
2023-02-06 18Z84-13-11-10-9.9-9.8-9.7-9.6-9.5-9.5-9.4-9.3-9.3-9.3-9.2-9.2-9.2-9.2-9.1-9.1-9.1-9.1-9-8.9-8.8-8.8-8.7-8.5-8.3-8.3-8.2-7.8-6.5
2023-02-06 21Z87-14.1-11.5-11.1-10.8-10.7-10.7-10.5-10.5-10.4-10.3-10.2-10.2-10.2-10.2-10.1-10.1-10.1-10-9.9-9.9-9.9-9.9-9.8-9.7-9.5-9.5-9.4-9.3-9.2-9.2-8.9-7.4
2023-02-07 00Z90-14.1-12-11.6-11.5-11.4-11.3-11.3-11.3-11.2-11.2-11-11-11-10.9-10.7-10.7-10.7-10.7-10.6-10.5-10.3-10.3-10.3-10.2-10.2-10.1-9.8-9.7-9.7-9.6-9.5-7.6
2023-02-07 03Z93-14.1-12.3-12.2-12.1-11.9-11.9-11.7-11.6-11.6-11.5-11.5-11.5-11.3-11.2-11.1-11.1-11.1-11-11-10.8-10.8-10.8-10.8-10.7-10.7-10.7-10.6-10.6-10.3-10.2-9.6-7.9
2023-02-07 06Z96-13.6-12.3-12.3-12-12-11.6-11.6-11.5-11.4-11.3-11.3-11.3-11.3-11.3-11.3-11.1-11-10.9-10.8-10.8-10.7-10.7-10.7-10.5-10.2-10.2-10-10-10-10-9.7-8.3
2023-02-07 09Z99-7.3-7.2-6.9-6.8-6.8-6.5-6.4-6.3-6.2-6.2-6.2-6.1-5.9-5.9-5.9-5.8-5.8-5.7-5.6-5.4-5.4-5.4-5.3-5.2-5.2-5.2-5.1-5-4.9-4.8-4.7-3.4
2023-02-07 12Z102-5.3-5.2-4.9-4.9-4.8-4.7-4.6-4.6-4.2-4.1-3.9-3.8-3.7-3.7-3.5-3.4-3.4-3.4-3.3-3.2-2.9-2.9-2.9-2.8-2.7-2.6-2.6-2.6-2.5-2.4-2.2-0.4
2023-02-07 15Z105-6.5-6.5-6.2-6.2-5.7-5.7-5.6-5.6-5.1-5.1-5-4.9-4.9-4.8-4.8-4.8-4.8-4.8-4.7-4.6-4.2-4.2-4.2-4.2-4.1-3.8-3.7-3.7-3.7-3.6-3.5-1.8
2023-02-07 18Z108-11.9-9.9-9.6-9.5-9.3-9.2-9.1-9-9-8.8-8.8-8.7-8.7-8.3-8.3-8.3-8.2-8.2-8.1-8.1-8-7.9-7.9-7.8-7.7-7.5-7.3-6.9-6.6-6-6-5.7
2023-02-07 21Z111-12.4-11.1-11-10.6-10.3-10.3-10.3-10.2-10.1-10-10-9.9-9.7-9.6-9.5-9.4-9.3-9.1-9-9-9-8.9-8.9-8.9-8.7-8.7-8-7.6-7.3-6.9-6.8-6.5
2023-02-08 00Z114-12.8-12-11.4-11.3-11.3-10.9-10.9-10.7-10.6-10.6-10.5-10.5-10.3-10.2-10.1-10.1-10-9.9-9.8-9.6-9.6-9.6-9.5-9.3-9.2-9-8.8-8.5-8.2-8-7.2-7.2
2023-02-08 03Z117-13.1-12.5-11.5-11.3-11.3-11.2-11.2-11.2-11.1-11.1-10.8-10.7-10.6-10.5-10.4-10.3-10.3-10.3-10.2-10.2-10.1-10-10-9.9-9.6-9.6-9.5-9.3-8.8-8.4-8.3-7.9
2023-02-08 06Z120-13-12.3-11.7-11.6-11.2-11.2-11.1-11-10.9-10.8-10.8-10.7-10.7-10.7-10.6-10.5-10.3-10.2-10.1-9.9-9.9-9.9-9.8-9.8-9.6-9.6-9.4-9.4-9.1-9-8.6-8
2023-02-08 09Z123-6.8-6.6-6.6-6.4-6.3-6-6-5.9-5.8-5.8-5.6-5.6-5.6-5.6-5.5-5.5-5.4-5.3-5.3-5.2-5.2-5.2-5.1-5.1-4.9-4.9-4.8-4.8-4.6-4.6-4.6-2.7
2023-02-08 12Z126-4.7-4.7-4.6-4.5-4-3.9-3.8-3.7-3.6-3.5-3.5-3.4-3.4-3.3-3.2-3.2-3.2-3.2-3-2.9-2.9-2.8-2.8-2.7-2.6-2.5-2.5-2.4-2.2-1.6-1-0.3
2023-02-08 15Z129-6.3-6.3-6-5.9-5.8-5.6-5.4-5.4-5.2-5.1-4.8-4.7-4.7-4.6-4.6-4.4-4.3-4.1-4.1-4-4-4-3.9-3.9-3.8-3.8-3.8-3.7-3.4-2.9-2-1.9
2023-02-08 18Z132-10.9-10.4-9.5-9.3-9.2-9.1-9.1-9-8.9-8.8-8.7-8.7-8.5-8.3-8.2-8.1-8.1-8.1-8-7.9-7.8-7.8-7.7-7.7-7.6-7.3-7.1-7.1-6.6-6.2-6.1-5.9
2023-02-08 21Z135-11.6-11.4-10.8-10.4-10.4-10.2-10.1-10-9.9-9.8-9.8-9.7-9.7-9.6-9.6-9.5-9.1-9-9-8.9-8.9-8.8-8.8-8.4-8.3-8.2-7.8-7.3-7.3-7.1-6.8-6.2
2023-02-09 00Z138-11.9-11.8-11.5-11.1-11.1-10.6-10.6-10.6-10.6-10.5-10.4-10.3-10.3-10.2-10.2-9.9-9.8-9.8-9.6-9.6-9.5-9.4-9.4-9.1-8.5-8.5-8.4-8.3-7.9-7.8-7.4-7
2023-02-09 03Z141-12.2-12-11.6-11.4-11.3-11.2-11.1-11.1-10.9-10.8-10.8-10.7-10.6-10.4-10.4-10.3-10.2-10.2-10.2-10.1-10-9.9-9.8-9.7-9.4-9.1-8.7-8.5-8.4-8.4-8.3-7.9
2023-02-09 06Z144-12-11.8-11.6-11.4-11.4-11.2-11.1-11-10.9-10.7-10.6-10.5-10.5-10.4-10.3-10.3-10.2-10.1-10-9.9-9.9-9.8-9.7-9.7-9.5-9.4-9.2-9-8.8-8.5-8.4-8.2
2023-02-09 09Z147-6.8-6.6-6.4-6.1-5.9-5.9-5.8-5.8-5.7-5.7-5.6-5.5-5.4-5.2-4.9-4.8-4.7-4.7-4.7-4.6-4.5-4.5-4.4-4.4-4.2-4.2-4.2-4-4-4-3.2-2.7
2023-02-09 12Z150-4.8-4.5-4.5-4.1-3.5-3.2-3-2.9-2.7-2.6-2.5-2.4-2.3-2.3-2.2-2.2-2.1-2-1.8-1.8-1.7-1.7-1.6-1.6-1.6-1.4-1.3-1.3-1.2-0.6-0.40
2023-02-09 15Z153-6.7-6.2-6.1-5.6-4.7-4.5-4.4-4.2-4.1-4-3.9-3.7-3.6-3.5-3.5-3.3-3.3-3.2-3.2-3.1-3.1-2.9-2.9-2.9-2.9-2.7-2.6-2.5-2.4-2.2-1.8-1.2
2023-02-09 18Z156-11.2-10.2-9.9-8.8-8.8-8.4-8.2-8.2-8-8-7.9-7.8-7.6-7.6-7.5-7.4-7.4-7.3-7.2-7-6.9-6.8-6.7-6.6-6.5-6.5-6.4-6.1-5.9-5.8-5.4-5.4
2023-02-09 21Z159-12.2-11.9-11.1-10-9.6-9.5-9.5-9.4-9.3-9.1-8.9-8.8-8.6-8.4-8.4-8.2-8.2-8.2-8.1-8-7.9-7.8-7.8-7.6-7.6-7.4-7.3-7.1-7-6.9-6.7-6.5
2023-02-10 00Z162-12.9-12.8-11.9-10.7-10.2-10-10-9.9-9.8-9.6-9.4-9.4-9.2-9.1-9-8.8-8.8-8.8-8.6-8.6-8.4-8.4-8.3-8.1-8-7.9-7.9-7.6-7.6-7.5-7.2-7.1
2023-02-10 03Z165-13.3-13.2-12.7-11.2-10.8-10.5-10.4-10.3-10.3-10-10-9.8-9.8-9.6-9.4-9.3-9.3-9.1-9-8.9-8.9-8.8-8.6-8.5-8.5-8.5-8.4-8.1-8-7.8-7.4-7
2023-02-10 06Z168-13.5-13.1-12.5-10.9-10.8-10.5-10.3-10.1-10-9.9-9.9-9.8-9.8-9.6-9.5-9.5-9.3-9.2-9.2-9.1-8.8-8.7-8.4-8.4-8.2-8.2-8.2-8.2-8.1-8-7.5-7.3
2023-02-10 09Z171-9.6-7.5-6.1-5.8-5.5-5.1-4.7-4.6-4.5-4.5-4.5-4.4-4.4-4.2-4.1-4.1-4-4-4-3.8-3.7-3.7-3.6-3.3-3.3-3.3-3-2.3-2.3-1.7-1.7-1.6
2023-02-10 12Z174-6.2-4.7-4.7-3.4-3.2-2.6-2.5-2.2-2-1.9-1.8-1.6-1.5-1.3-1.3-1.3-1.1-1.1-1-0.9-0.8-0.8-0.8-0.8-0.7-0.40.10.11.11.31.42
2023-02-10 15Z177-6.5-6.2-5.6-4.9-4.4-4.3-3.7-3.3-3.2-3.2-3.1-3.1-3-2.9-2.8-2.5-2.5-2.5-2.3-2.2-2.2-2-1.8-1.8-1.7-1.4-1.1-1.1-0.7-0.200.5
2023-02-10 18Z180-10.5-10.2-8.7-8.6-8.3-7.7-7.5-7-6.9-6.8-6.8-6.6-6.6-6.6-6.5-6.5-6.5-6.3-6.2-6.1-5.9-5.8-5.8-5.8-5.8-5.6-5.4-4.5-4.2-4.1-3.4-2.7
2023-02-10 21Z183-11.3-10.7-9.4-9.2-9.1-8.9-8.3-8-7.9-7.8-7.8-7.8-7.6-7.6-7.4-7.4-7.4-7.2-7.1-7.1-6.8-6.6-6.6-6.3-6.3-6.2-6-5.3-4.9-4.8-4.2-3.3
2023-02-11 00Z186-10.9-10.4-9.9-9.6-9.3-9.2-8.9-8.8-8.7-8.6-8.4-8.3-8.3-8.2-8.2-8-7.9-7.8-7.2-7-6.9-6.9-6.8-6.8-6.6-6.4-6.3-5.8-5.3-4.9-4.7-3.8
2023-02-11 03Z189-10.7-9.9-9.9-9.8-9.8-9.6-9.3-9.2-9.2-9.1-9-9-8.9-8.6-8.4-8.4-8.3-8.1-7.5-7.5-7.4-7.3-7.2-7.1-6.9-6.8-6.5-6.5-5.4-5.1-5.1-4.2
2023-02-11 06Z192-10.5-10-9.5-9.4-9.3-9.3-9.3-9.2-9.1-9.1-8.9-8.9-8.8-8.8-8.7-8.3-8.2-8-7.8-7.7-7.6-7.2-6.9-6.9-6.8-6.7-6.6-5.9-5.4-5.1-5-4.2
2023-02-11 12Z198-5-3.3-3.1-2.8-1.8-1.8-0.9-0.9-0.8-0.6-0.30000.20.20.40.70.711.21.31.71.922.52.5344.64.75.7
2023-02-11 18Z204-9.1-7.2-6.6-6.6-6.4-6.1-6.1-6-5.9-5.9-5.8-5.8-5.2-5-5-5-4.9-4.9-4.9-4.5-4.5-4.2-3.3-3.3-3.2-2.6-2.5-2.4-2-1.7-1.6-0.4
2023-02-12 00Z210-10.4-8.8-8.3-8.2-7.8-7.7-7.4-7.1-7.1-7-7-6.7-6.6-6.6-6.6-6.4-6.3-5.9-5.8-5.4-5.3-4.9-4.4-4.4-4.3-4.3-4.1-3.3-3.1-3-2.9-1.4
2023-02-12 06Z216-12-9-8.8-8.6-8.4-8.3-8-8-7.5-7.2-7.1-6.9-6.7-6.7-6.7-6.6-6.6-6.5-6.2-5.8-5.1-4.9-4.5-4.5-4.4-4.4-4-3.7-3.7-3.6-2.9-2
2023-02-12 12Z222-4.3-3.8-3.1-1.8-1.3-1.3-1.1-0.6-0.3-0.3-0.200.50.71.51.61.71.71.922.23.43.73.73.84.34.34.34.55.15.96.8
2023-02-12 18Z228-9.4-7.1-6.5-6.2-6.2-5.6-5.4-5.3-5.3-5.3-5.3-5.2-4.6-4-3.6-3.6-3.4-3.3-3.1-2.9-2.9-2.8-2.7-2-1.9-1.7-1.3-0.7-0.2-0.100.2
2023-02-13 00Z234-11.5-10.2-8.4-7.4-7.1-7-6.8-6.7-6.5-6.5-6.3-6.2-5.8-4.8-4.6-4.6-4.5-4.3-4.3-4.2-4.1-3.6-3.6-3.4-3.3-3-2.1-1.9-1.8-1.2-0.60.5
2023-02-13 06Z240-11.7-10.2-9.1-8.4-7.9-7.8-7.6-6.9-6.8-6.3-5.9-5.8-5.5-5.1-5.1-4.9-4.7-4.6-4.5-4.4-4-4-3.9-3.6-3.4-2.5-2.2-2.1-1.1-0.8-0.50.4
2023-02-13 12Z246-3.5-2.7-1.4-0.5-0.30.10.60.90.91.71.71.72.42.52.73.13.84444.14.24.34.64.75.35.96.26.36.57.27.4
2023-02-13 18Z252-7.7-6.7-4.9-4.6-4.2-3.9-3.9-3.6-3.6-3-2.8-2.6-2.3-1.7-1.7-1.7-1.4-1.3-1.2-1.2-1.1-1-1-0.7-0.5-0.5-0.40.51.41.82.42.7
2023-02-14 00Z258-8.9-7.9-6.8-6.5-5.2-5.2-5.1-4.9-4.8-4.5-4.4-3.5-3.3-3.3-3-2.6-2.5-2.3-2.2-2.2-2.2-2.1-1.7-1.6-1.5-1.1-0.20.40.70.91.11.9
2023-02-14 06Z264-8.5-8.3-7.6-7.2-6.3-6.3-6-5.5-5-5-4.7-3.7-3.2-3.2-2.9-2.8-2.6-2.6-2.4-2.3-2.3-2.2-1.7-1.4-1.2-0.8-0.5-0.3-0.30.20.61.1
2023-02-14 12Z270-4.8-4-2.2-2-0.700.10.20.71.21.51.62.32.933.43.63.73.84.34.54.64.655.25.66.26.37.27.57.77.8
2023-02-14 18Z276-7.9-6.2-6-5-4.9-4.8-3.8-3.5-3.2-2.8-2.5-2.5-2.1-1.7-1.4-1.3-1.1-1.1-1-0.7-0.3-0.100.40.40.50.51.11.11.62.12.5
2023-02-15 00Z282-10.4-7.8-7.7-7-6.4-6-5.1-5.1-4.5-4-3.5-3.1-3-2.7-2.3-2.2-2.2-2.1-2.1-1.7-1.6-1.6-1.6-1.4-0.7-0.6-0.3000.11.11.9
2023-02-15 06Z288-11.4-9.1-8.2-7.7-7.4-6.9-6.1-5.5-4.7-4.2-4.1-3.8-3.5-2.6-2.5-2.4-2.3-2.2-2.1-2-1.7-1.5-1.3-1.2-0.9-0.9-0.4-0.400.31.12.3
2023-02-15 12Z294-8.8-5.4-3.9-1.7-0.9-0.7-0.10.40.51.41.61.72.42.93.13.33.84.14.14.14.75.25.35.96.16.56.56.78.28.59.310.4
2023-02-15 18Z300-11.4-8.2-6.9-4.8-4.6-4.2-4-3.3-3.2-2.8-2.4-1.9-1.4-1.4-1.3-1-1-0.9-0.7-0.6-0.3-0.200.10.80.90.92.12.22.42.53.9
2023-02-16 00Z306-13.3-10.1-7.9-6.4-5.8-5.6-5.6-5.6-5.1-4.4-3.5-3.3-3.2-3-2.9-2.7-2.5-2.3-2.2-2.2-1.6-0.7-0.6-0.5-0.5-0.400.20.71.11.41.8
2023-02-16 06Z312-15.5-10.5-8.2-8-7.3-7.3-7.1-6.3-6.2-6.2-5.8-4-3.6-2.9-2.8-2.4-2.4-2.4-1.9-1.7-1.6-1.5-1.1-0.9-0.7-0.300.20.40.50.61.3
2023-02-16 12Z318-9.2-5.1-4.4-4.1-4-3.9-2.3-0.90.81.21.52.22.633.43.43.43.64.555.66.26.36.46.76.86.989.59.61010
2023-02-16 18Z324-14.3-8.3-8.1-7.8-7.3-7.2-7-4.5-3.2-3-2.4-2.2-2-1.7-1.5-0.7-0.4-0.10000.10.211.11.622.42.73.244.2
2023-02-17 00Z330-16.6-10.9-10.8-9.6-8.8-8.1-8-6.5-4.2-3.9-3.8-3.8-2.9-2.6-2.3-2.2-1.8-1.7-1-0.9-0.7-0.7-0.5-0.5-0.40.30.30.40.51.71.82.2
2023-02-17 06Z336-16.7-11-10.1-9.9-8.5-7.7-7.4-7.4-4.6-4.5-4.3-3.9-3.6-3.1-2.5-2.1-1.4-1.4-0.9-0.7-0.5-0.5-0.3-0.100.10.21.11.31.31.52.4
2023-02-17 12Z342-6.2-4.1-3.6-1.7-0.9-0.8-0.60.10.61.71.822.22.844.24.95.45.76.16.36.38.38.58.68.78.99.59.59.610.611.4
2023-02-17 18Z348-11.7-7.2-5.7-5.6-4.7-3.9-3.3-3.1-2.9-2.2-1.9-1.6-1.2-0.9-0.8-0.6-0.30.40.51.7222.12.52.72.93.844.35.25.65.6
2023-02-18 00Z354-13.6-10.6-6.8-6.6-6-4.4-4-3.7-3.6-3.4-2.5-2.2-1.8-1.8-1.8-1.4-0.6-0.5-0.10.30.50.50.50.81.31.51.92.72.82.93.23.9
2023-02-18 06Z360-12.8-10.1-7.6-6.6-6.1-4.4-4.1-4.1-4-3.8-2.7-2.7-2.7-2.5-2.3-1.8-0.3000.10.40.40.80.91.3222.22.42.63.34.2
2023-02-18 12Z366-3.5-2.8-2.1-0.7-0.4-0.10.10.22.12.22.72.82.93.44.14.255.55.55.76.97.58.28.69.29.71010.911.311.311.712.4
2023-02-18 18Z372-7.3-6.7-6.6-4.9-4.6-3.7-3.6-2.3-1.5-1.4-1.4-0.8-0.8-0.7-0.50.30.90.90.91.62.82.93.23.84.34.45.766.36.46.87.4
2023-02-19 00Z378-10-9-7.4-5.6-5.1-5-3.9-2.7-2.6-2.2-2.2-1.6-1.4-1.3-1.2-1.2-1-0.700.1111.11.32.32.52.93.13.63.94.25
2023-02-19 06Z384-10.5-10.1-8.7-6.7-5.7-4.1-3.3-2.4-2.3-2.3-1.9-1.8-1.8-1.6-1.4-1.1-0.7000.20.50.50.71.122.33.23.63.74.14.24.6

Retour à la carte

Meteociel™ | © 2004 - 2023 | Forums Météo | Prévi Paris | Paramètres des cookies | Cookies | Média - Meteociel | Mentions légales | Contact